createdAt,value
2023-12-04T05:23:28.038Z,7.53
2023-12-04T05:28:33.567Z,7.66
2023-12-04T05:33:38.301Z,7.70
2023-12-04T05:38:42.856Z,7.69
2023-12-04T05:43:47.112Z,7.80
2023-12-04T05:48:51.811Z,7.86
2023-12-04T05:53:56.235Z,7.83
2023-12-04T05:59:00.961Z,7.86
2023-12-04T06:04:06.687Z,8.04
2023-12-04T06:09:11.042Z,8.19
2023-12-04T06:14:15.049Z,8.16
2023-12-04T06:27:22.351Z,8.32
2023-12-04T06:32:26.992Z,8.57
2023-12-04T06:37:31.613Z,8.85
2023-12-04T06:42:37.313Z,8.87
2023-12-04T06:47:45.606Z,9.97
2023-12-04T06:52:50.391Z,11.33
2023-12-04T06:57:54.607Z,12.61
2023-12-04T07:02:58.690Z,13.58
2023-12-04T07:08:02.585Z,14.99
2023-12-04T07:13:06.625Z,15.62
2023-12-04T07:18:10.856Z,15.16
2023-12-04T07:23:14.726Z,14.02
2023-12-04T07:28:18.685Z,13.55
2023-12-04T07:33:23.456Z,12.68
2023-12-04T07:38:29.592Z,12.13
2023-12-04T07:43:34.284Z,11.81
2023-12-04T07:48:38.520Z,11.40
2023-12-04T07:53:42.642Z,11.14
2023-12-04T07:58:46.765Z,10.94
2023-12-04T08:03:51.761Z,10.76
2023-12-04T08:08:57.342Z,10.36
2023-12-04T08:14:01.523Z,10.23
2023-12-04T08:19:08.888Z,10.43
2023-12-04T08:24:12.975Z,10.44
2023-12-04T08:29:17.073Z,10.40
2023-12-04T08:34:21.210Z,10.58
2023-12-04T08:39:26.358Z,10.37
2023-12-04T08:44:33.182Z,10.35
2023-12-04T08:49:48.952Z,10.33
2023-12-04T08:54:55.793Z,10.35
2023-12-04T09:00:00.412Z,10.17
2023-12-04T09:05:04.915Z,10.23
2023-12-04T09:10:14.070Z,9.97
2023-12-04T09:15:25.549Z,9.89
2023-12-04T09:20:39.232Z,9.91
2023-12-04T09:25:43.345Z,9.60
2023-12-04T09:30:47.624Z,9.53
2023-12-04T09:35:52.382Z,9.47
2023-12-04T09:41:03.739Z,9.31
2023-12-04T09:46:08.024Z,9.09
2023-12-04T09:51:12.813Z,9.01
2023-12-04T09:56:19.544Z,8.83
2023-12-04T10:01:23.737Z,8.96
2023-12-04T10:06:30.772Z,9.14
2023-12-04T10:11:35.161Z,8.87
2023-12-04T10:16:39.472Z,8.82
2023-12-04T10:21:43.773Z,8.72
2023-12-04T10:26:54.124Z,8.62
2023-12-04T10:32:03.161Z,8.50
2023-12-04T10:37:08.127Z,8.34
2023-12-04T10:42:12.072Z,8.34
2023-12-04T10:47:16.873Z,8.12
2023-12-04T10:52:21.609Z,8.22
2023-12-04T10:57:33.806Z,7.99
